Time;durP1;ratioP1;P1;durP2;ratioP2;P2;SDS_P1;SDS_P2;PMS_P1;PMS_P2;Temp;Humidity;BMP_temperature;BMP_pressure;BME280_temperature;BME280_humidity;BME280_pressure;Samples;Min_cycle;Max_cycle;Signal;HPM_P1;HPM_P2
2023/10/09 00:01:17;;;;;;;4.28;1.45;;;;;;;;;;6308451;22;20021;-78
2023/10/09 00:03:51;;;;;;;5.30;1.95;;;;;;;;;;6280893;22;20008;-78
2023/10/09 00:06:23;;;;;;;3.00;1.92;;;;;;;;;;6310032;22;20051;-78
2023/10/09 00:08:54;;;;;;;3.85;2.05;;;;;;;;;;6308617;22;20086;-78
2023/10/09 00:11:20;;;;;;;5.40;2.25;;;;;;;;;;6283610;22;20042;-78
2023/10/09 00:13:57;;;;;;;4.10;2.25;;;;;;;;;;6307720;22;20011;-78
2023/10/09 00:16:32;;;;;;;5.75;2.50;;;;;;;;;;6282403;22;20034;-78
2023/10/09 00:19:12;;;;;;;6.07;2.53;;;;;;;;;;6282439;22;20007;-78
2023/10/09 00:21:38;;;;;;;6.85;2.65;;;;;;;;;;6286115;22;20015;-78
2023/10/09 00:24:13;;;;;;;6.30;2.65;;;;;;;;;;6285114;22;20094;-78
2023/10/09 00:26:44;;;;;;;6.18;2.70;;;;;;;;;;6311103;22;20067;-78
2023/10/09 00:29:15;;;;;;;6.28;3.00;;;;;;;;;;6282945;22;20030;-78
2023/10/09 00:31:50;;;;;;;6.85;2.80;;;;;;;;;;6309826;22;20513;-78
2023/10/09 00:34:19;;;;;;;5.03;2.75;;;;;;;;;;6279832;22;20019;-78
2023/10/09 00:36:52;;;;;;;7.20;3.30;;;;;;;;;;6307596;22;20086;-78
2023/10/09 00:39:33;;;;;;;6.00;3.10;;;;;;;;;;6279482;22;20069;-78
2023/10/09 00:42:00;;;;;;;4.50;2.83;;;;;;;;;;6307440;22;20045;-78
2023/10/09 00:44:37;;;;;;;5.40;2.90;;;;;;;;;;6307704;22;20019;-78
2023/10/09 00:47:10;;;;;;;8.13;2.95;;;;;;;;;;6279876;22;20026;-78
2023/10/09 00:49:39;;;;;;;9.70;4.47;;;;;;;;;;6306669;22;20100;-78
2023/10/09 00:52:12;;;;;;;7.25;3.10;;;;;;;;;;6306809;22;20015;-78
2023/10/09 00:54:41;;;;;;;6.78;3.22;;;;;;;;;;6279828;22;20018;-78
2023/10/09 00:57:07;;;;;;;7.53;3.90;;;;;;;;;;6306070;22;20039;-78
2023/10/09 00:59:38;;;;;;;7.45;4.05;;;;;;;;;;6307010;22;20022;-78
2023/10/09 01:02:04;;;;;;;8.75;4.03;;;;;;;;;;6279152;22;20011;-78
2023/10/09 01:04:36;;;;;;;10.48;4.53;;;;;;;;;;6278919;22;20022;-78
2023/10/09 01:07:08;;;;;;;8.25;4.35;;;;;;;;;;6278540;22;20019;-78
2023/10/09 01:09:37;;;;;;;11.95;4.90;;;;;;;;;;6307518;22;20386;-78
2023/10/09 01:12:04;;;;;;;8.38;5.45;;;;;;;;;;6278406;22;20011;-78
2023/10/09 01:14:35;;;;;;;9.10;4.90;;;;;;;;;;6278397;22;20137;-78
2023/10/09 01:17:02;;;;;;;9.10;4.55;;;;;;;;;;6278723;22;20472;-78
2023/10/09 01:19:28;;;;;;;14.63;4.93;;;;;;;;;;6253335;22;20011;-78
2023/10/09 01:22:04;;;;;;;7.20;4.60;;;;;;;;;;6278515;22;20016;-78
2023/10/09 01:24:35;;;;;;;;;;;;;;;;;;6279197;22;20012;-78
2023/10/09 01:27:05;;;;;;;10.75;4.82;;;;;;;;;;6277658;22;19938;-78
2023/10/09 01:29:31;;;;;;;11.00;5.28;;;;;;;;;;6252660;22;20015;-78
2023/10/09 01:32:04;;;;;;;11.77;5.25;;;;;;;;;;6306118;22;20070;-78
2023/10/09 01:34:44;;;;;;;11.35;5.53;;;;;;;;;;6277759;22;20027;-78
2023/10/09 01:39:50;;;;;;;13.23;6.07;;;;;;;;;;6306242;22;20070;-78
2023/10/09 01:42:44;;;;;;;9.63;4.90;;;;;;;;;;6278113;22;20022;-78
2023/10/09 01:45:11;;;;;;;9.70;4.28;;;;;;;;;;6305050;22;20022;-78
2023/10/09 01:47:40;;;;;;;10.70;5.13;;;;;;;;;;6278919;22;20452;-78
2023/10/09 01:50:12;;;;;;;10.75;4.53;;;;;;;;;;6305261;22;20015;-78
2023/10/09 01:52:38;;;;;;;11.23;5.63;;;;;;;;;;6306399;22;20073;-78
2023/10/09 01:55:27;;;;;;;10.02;5.32;;;;;;;;;;6305160;22;20467;-78
2023/10/09 01:57:50;;;;;;;8.40;5.20;;;;;;;;;;6305386;22;20019;-78
2023/10/09 02:00:23;;;;;;;9.32;4.97;;;;;;;;;;6305338;22;20110;-78
2023/10/09 02:02:50;;;;;;;11.27;5.65;;;;;;;;;;6278588;22;20100;-78
2023/10/09 02:07:51;;;;;;;12.20;5.53;;;;;;;;;;6305798;22;20019;-78
2023/10/09 02:13:00;;;;;;;15.07;6.57;;;;;;;;;;6278181;22;20025;-78
2023/10/09 02:15:51;;;;;;;11.80;5.68;;;;;;;;;;6278368;22;20037;-78
2023/10/09 02:21:00;;;;;;;15.10;6.57;;;;;;;;;;6305539;22;20015;-78
2023/10/09 02:23:39;;;;;;;12.55;5.85;;;;;;;;;;6305141;22;20018;-78
2023/10/09 02:26:06;;;;;;;12.55;6.28;;;;;;;;;;6305628;22;20073;-78
2023/10/09 02:28:32;;;;;;;14.68;6.68;;;;;;;;;;6305941;22;20116;-78
2023/10/09 02:31:01;;;;;;;14.60;7.47;;;;;;;;;;6278507;22;20340;-78
2023/10/09 02:33:27;;;;;;;14.02;6.28;;;;;;;;;;6305200;22;20050;-78
2023/10/09 02:35:55;;;;;;;14.57;6.35;;;;;;;;;;6277407;22;20024;-78
2023/10/09 02:38:23;;;;;;;11.68;6.95;;;;;;;;;;6277222;22;20062;-78
2023/10/09 02:43:40;;;;;;;13.07;7.38;;;;;;;;;;6277409;22;20015;-78
2023/10/09 02:46:19;;;;;;;12.30;6.57;;;;;;;;;;6277487;22;20053;-78
2023/10/09 02:48:52;;;;;;;15.65;7.60;;;;;;;;;;6278275;22;20058;-78
2023/10/09 02:53:56;;;;;;;14.85;8.68;;;;;;;;;;6278200;22;20415;-79
2023/10/09 02:56:24;;;;;;;15.38;8.55;;;;;;;;;;6304315;22;20141;-78
2023/10/09 02:58:53;;;;;;;16.55;7.90;;;;;;;;;;6305201;22;20011;-78
2023/10/09 03:01:19;;;;;;;16.67;7.85;;;;;;;;;;6304752;22;20018;-78
2023/10/09 03:03:45;;;;;;;18.45;8.38;;;;;;;;;;6278479;22;20038;-78
2023/10/09 03:06:12;;;;;;;19.00;9.18;;;;;;;;;;6276598;22;20015;-78
2023/10/09 03:08:40;;;;;;;16.50;8.50;;;;;;;;;;6278259;22;20015;-78
2023/10/09 03:11:13;;;;;;;19.35;9.00;;;;;;;;;;6304429;22;20378;-78
2023/10/09 03:13:42;;;;;;;17.83;8.77;;;;;;;;;;6277849;22;20015;-78
2023/10/09 03:16:14;;;;;;;18.83;8.60;;;;;;;;;;6304776;22;20020;-78
2023/10/09 03:18:40;;;;;;;17.63;8.93;;;;;;;;;;6278639;22;20459;-78
2023/10/09 03:21:06;;;;;;;19.52;11.07;;;;;;;;;;6304414;22;20337;-78
2023/10/09 03:23:34;;;;;;;22.95;10.25;;;;;;;;;;6304757;22;20011;-78
2023/10/09 03:26:00;;;;;;;17.45;9.85;;;;;;;;;;6276540;22;20089;-78
2023/10/09 03:28:26;;;;;;;20.42;9.20;;;;;;;;;;6304350;22;20019;-78
2023/10/09 03:30:53;;;;;;;19.02;10.13;;;;;;;;;;6277749;22;20348;-78
2023/10/09 03:33:19;;;;;;;20.10;9.80;;;;;;;;;;6305045;22;20019;-78
2023/10/09 03:35:45;;;;;;;19.98;9.88;;;;;;;;;;6277676;22;20352;-78
2023/10/09 03:38:18;;;;;;;18.60;9.73;;;;;;;;;;6277594;22;20492;-78
2023/10/09 03:40:47;;;;;;;18.98;9.80;;;;;;;;;;6305569;22;20012;-78
2023/10/09 03:43:14;;;;;;;18.20;10.20;;;;;;;;;;6275801;22;20842;-79
2023/10/09 03:45:53;;;;;;;23.33;10.73;;;;;;;;;;6305275;22;20779;-78
2023/10/09 03:48:31;;;;;;;21.75;10.32;;;;;;;;;;6305467;22;20011;-78
2023/10/09 03:51:11;;;;;;;21.85;10.80;;;;;;;;;;6276759;22;20015;-78
2023/10/09 03:53:39;;;;;;;24.83;11.10;;;;;;;;;;6278150;22;20007;-78
2023/10/09 03:56:11;;;;;;;26.67;10.82;;;;;;;;;;6304701;22;20340;-78
2023/10/09 03:58:39;;;;;;;19.65;11.70;;;;;;;;;;6304438;22;20015;-78
2023/10/09 04:01:10;;;;;;;22.50;12.57;;;;;;;;;;6305506;22;20019;-78
2023/10/09 04:03:38;;;;;;;23.65;11.32;;;;;;;;;;6278731;22;20015;-78
2023/10/09 04:06:08;;;;;;;23.63;11.70;;;;;;;;;;6277210;22;20030;-78
2023/10/09 04:08:35;;;;;;;22.92;12.38;;;;;;;;;;6278325;22;20349;-78
2023/10/09 04:11:02;;;;;;;23.15;11.52;;;;;;;;;;6277326;22;20017;-78
2023/10/09 04:13:34;;;;;;;22.00;12.13;;;;;;;;;;6277703;22;20445;-78
2023/10/09 04:18:49;;;;;;;;;;;;;;;;;;6306084;22;20011;-79
2023/10/09 04:21:18;;;;;;;19.65;9.90;;;;;;;;;;6304782;22;19922;-78
2023/10/09 04:24:09;;;;;;;22.15;12.55;;;;;;;;;;6306059;22;20088;-79
2023/10/09 04:26:36;;;;;;;22.67;11.90;;;;;;;;;;6305605;22;20054;-78
2023/10/09 04:29:02;;;;;;;23.95;12.75;;;;;;;;;;6306825;22;20021;-79
2023/10/09 04:31:31;;;;;;;22.85;10.95;;;;;;;;;;6307183;22;20022;-79
2023/10/09 04:39:47;;;;;;;29.48;12.02;;;;;;;;;;6295374;22;20023;-78
2023/10/09 04:42:36;;;;;;;23.33;11.82;;;;;;;;;;6306671;22;20015;-78
2023/10/09 04:47:49;;;;;;;22.83;10.85;;;;;;;;;;6307418;22;20015;-78
2023/10/09 04:53:22;;;;;;;24.02;10.55;;;;;;;;;;6306131;22;20068;-78
2023/10/09 04:55:57;;;;;;;22.20;11.93;;;;;;;;;;6307570;22;20019;-78
2023/10/09 04:58:27;;;;;;;21.30;10.13;;;;;;;;;;6306348;22;20467;-78
2023/10/09 05:03:42;;;;;;;23.65;10.20;;;;;;;;;;6305428;22;20012;-78
2023/10/09 05:06:21;;;;;;;19.55;11.10;;;;;;;;;;6306296;22;21085;-78
2023/10/09 05:08:48;;;;;;;20.45;9.23;;;;;;;;;;6308107;22;20037;-78
2023/10/09 05:11:34;;;;;;;23.08;11.02;;;;;;;;;;6306093;22;20456;-78
2023/10/09 05:14:12;;;;;;;22.02;10.23;;;;;;;;;;6306986;22;20019;-78
2023/10/09 05:16:53;;;;;;;18.63;10.35;;;;;;;;;;6278568;22;20383;-78
2023/10/09 05:19:33;;;;;;;23.85;10.48;;;;;;;;;;6301786;22;20007;-78
2023/10/09 05:22:07;;;;;;;19.25;9.95;;;;;;;;;;6278720;22;20444;-79
2023/10/09 05:24:43;;;;;;;19.17;9.57;;;;;;;;;;6306072;22;20019;-78
2023/10/09 05:27:18;;;;;;;;;;;;;;;;;;6307605;22;20027;-78
2023/10/09 05:30:27;;;;;;;17.85;9.27;;;;;;;;;;6306681;22;19935;-78
2023/10/09 05:32:48;;;;;;;18.20;8.93;;;;;;;;;;6290978;22;20019;-78
2023/10/09 05:35:19;;;;;;;17.83;7.95;;;;;;;;;;6304263;22;20026;-78
2023/10/09 05:37:46;;;;;;;19.63;9.75;;;;;;;;;;6306570;22;20018;-78
2023/10/09 05:47:53;;;;;;;23.02;10.02;;;;;;;;;;6305390;22;20033;-79
2023/10/09 06:06:02;;;;;;;12.98;7.63;;;;;;;;;;6306040;22;20051;-78
2023/10/09 06:11:38;;;;;;;11.63;6.00;;;;;;;;;;6304587;22;20325;-78
2023/10/09 06:24:18;;;;;;;11.10;6.18;;;;;;;;;;6309123;22;20019;-81
2023/10/09 06:26:54;;;;;;;12.63;6.40;;;;;;;;;;6311416;22;20471;-81
2023/10/09 06:29:50;;;;;;;10.38;6.18;;;;;;;;;;6310208;22;20523;-81
2023/10/09 06:35:15;;;;;;;11.00;6.00;;;;;;;;;;6310991;22;20053;-81
2023/10/09 06:43:26;;;;;;;8.57;5.50;;;;;;;;;;6309393;22;20019;-80
2023/10/09 06:58:57;;;;;;;7.82;4.95;;;;;;;;;;6306876;22;20023;-79
2023/10/09 07:03:53;;;;;;;9.43;4.68;;;;;;;;;;6307549;22;20043;-79
2023/10/09 07:06:56;;;;;;;9.45;5.40;;;;;;;;;;6309172;22;20015;-80
2023/10/09 07:14:07;;;;;;;9.70;4.90;;;;;;;;;;6305480;22;20025;-78
2023/10/09 07:16:56;;;;;;;10.38;4.65;;;;;;;;;;6278597;22;20427;-79
2023/10/09 07:22:04;;;;;;;7.45;4.60;;;;;;;;;;6278712;22;20019;-79
2023/10/09 07:25:14;;;;;;;8.05;4.47;;;;;;;;;;6278717;22;20039;-78
2023/10/09 07:27:43;;;;;;;10.07;4.55;;;;;;;;;;6266210;22;20024;-78
2023/10/09 07:32:54;;;;;;;5.82;3.42;;;;;;;;;;6278823;22;20011;-78
2023/10/09 07:38:05;;;;;;;9.55;4.15;;;;;;;;;;6305281;22;20047;-78
2023/10/09 07:40:51;;;;;;;6.95;3.85;;;;;;;;;;6305285;22;20335;-79
2023/10/09 07:43:17;;;;;;;6.90;3.63;;;;;;;;;;6303357;22;20019;-78
2023/10/09 07:48:16;;;;;;;9.65;3.85;;;;;;;;;;6306172;22;20015;-78
2023/10/09 07:50:48;;;;;;;7.45;4.05;;;;;;;;;;6305915;22;20049;-79
2023/10/09 07:53:17;;;;;;;8.77;4.10;;;;;;;;;;6306079;22;20110;-79
2023/10/09 07:55:53;;;;;;;7.78;4.50;;;;;;;;;;6306478;22;20369;-79
2023/10/09 07:58:24;;;;;;;10.60;4.65;;;;;;;;;;6306496;22;20015;-79
2023/10/09 08:01:06;;;;;;;7.88;4.00;;;;;;;;;;6310856;22;20039;-81
2023/10/09 08:03:34;;;;;;;8.25;4.13;;;;;;;;;;6309996;22;20011;-79
2023/10/09 08:09:17;;;;;;;5.60;3.67;;;;;;;;;;6308573;22;20011;-79
2023/10/09 08:12:13;;;;;;;8.85;3.80;;;;;;;;;;6279366;22;20093;-79
2023/10/09 08:14:42;;;;;;;8.20;4.32;;;;;;;;;;6292815;22;20011;-78
2023/10/09 08:17:16;;;;;;;8.00;4.70;;;;;;;;;;6307034;22;20015;-79
2023/10/09 08:19:56;;;;;;;8.05;3.95;;;;;;;;;;6307418;22;20079;-79
2023/10/09 08:24:55;;;;;;;9.63;5.32;;;;;;;;;;6308216;22;20043;-79
2023/10/09 08:32:43;;;;;;;8.20;4.03;;;;;;;;;;6280266;22;20023;-79
2023/10/09 08:35:29;;;;;;;11.32;4.70;;;;;;;;;;6309167;22;20066;-80
2023/10/09 08:38:08;;;;;;;8.25;3.92;;;;;;;;;;6306383;22;20094;-79
2023/10/09 08:40:41;;;;;;;14.20;4.60;;;;;;;;;;6280372;22;20072;-79
2023/10/09 08:43:14;;;;;;;11.40;4.90;;;;;;;;;;6282643;22;20080;-80
2023/10/09 08:45:40;;;;;;;9.63;4.18;;;;;;;;;;6308818;22;20022;-81
2023/10/09 08:48:07;;;;;;;7.70;4.00;;;;;;;;;;6281338;22;20095;-80
2023/10/09 08:50:34;;;;;;;10.98;4.82;;;;;;;;;;6310552;22;20011;-80
2023/10/09 08:53:03;;;;;;;10.15;4.72;;;;;;;;;;6309155;22;20022;-79
2023/10/09 08:55:29;;;;;;;6.20;3.65;;;;;;;;;;6310587;22;20015;-79
2023/10/09 08:57:57;;;;;;;10.20;5.32;;;;;;;;;;6311366;22;20141;-79
2023/10/09 09:00:23;;;;;;;9.60;4.43;;;;;;;;;;6311913;22;20011;-79
2023/10/09 09:02:56;;;;;;;9.85;4.78;;;;;;;;;;6284429;22;20026;-79
2023/10/09 09:05:23;;;;;;;8.13;4.38;;;;;;;;;;6310447;22;20425;-79
2023/10/09 09:07:49;;;;;;;9.43;4.32;;;;;;;;;;6311588;22;20019;-79
2023/10/09 09:10:21;;;;;;;10.65;4.05;;;;;;;;;;6285092;22;20034;-80
2023/10/09 09:12:53;;;;;;;8.80;4.78;;;;;;;;;;6311074;22;20011;-79
2023/10/09 09:15:20;;;;;;;9.27;4.10;;;;;;;;;;6281496;22;20050;-79
2023/10/09 09:17:47;;;;;;;8.73;4.28;;;;;;;;;;6257299;22;20063;-79
2023/10/09 09:20:23;;;;;;;9.55;4.43;;;;;;;;;;6311447;22;20015;-79
2023/10/09 09:22:56;;;;;;;10.73;4.43;;;;;;;;;;6285225;22;20023;-79
2023/10/09 09:25:24;;;;;;;10.02;5.35;;;;;;;;;;6283381;22;20026;-79
2023/10/09 09:27:54;;;;;;;6.30;3.53;;;;;;;;;;6316737;22;20016;-83
2023/10/09 09:30:34;;;;;;;7.30;4.70;;;;;;;;;;6293123;22;20372;-80
2023/10/09 09:36:05;;;;;;;9.50;4.95;;;;;;;;;;6320862;22;20019;-81
2023/10/09 09:38:42;;;;;;;10.02;4.32;;;;;;;;;;6319814;22;20507;-81
2023/10/09 09:41:09;;;;;;;10.40;4.28;;;;;;;;;;6320303;22;20011;-81
2023/10/09 09:43:40;;;;;;;10.93;4.85;;;;;;;;;;6320352;22;20018;-81
2023/10/09 09:46:08;;;;;;;9.30;4.30;;;;;;;;;;6321995;22;20026;-81
2023/10/09 09:48:44;;;;;;;10.10;5.15;;;;;;;;;;6319087;22;20015;-81
2023/10/09 09:51:13;;;;;;;9.18;4.65;;;;;;;;;;6318414;22;20011;-81
2023/10/09 09:53:40;;;;;;;17.00;6.45;;;;;;;;;;6289529;22;20073;-81
2023/10/09 09:56:06;;;;;;;10.02;4.90;;;;;;;;;;6318721;22;20014;-81
2023/10/09 09:58:42;;;;;;;11.32;5.28;;;;;;;;;;6316983;22;20066;-81
2023/10/09 10:01:16;;;;;;;9.20;3.83;;;;;;;;;;6321964;22;20109;-81
2023/10/09 10:03:48;;;;;;;9.60;4.25;;;;;;;;;;6317601;22;20007;-81
2023/10/09 10:06:18;;;;;;;10.60;5.07;;;;;;;;;;6317340;22;20042;-81
2023/10/09 10:08:50;;;;;;;;;;;;;;;;;;6287550;22;20011;-80
2023/10/09 10:11:40;;;;;;;7.68;4.97;;;;;;;;;;6314594;22;20354;-80
2023/10/09 10:14:10;;;;;;;10.38;4.28;;;;;;;;;;6311515;22;20012;-80
2023/10/09 10:16:56;;;;;;;11.65;4.60;;;;;;;;;;6285364;22;20077;-81
2023/10/09 10:19:22;;;;;;;10.93;4.50;;;;;;;;;;6309467;22;20046;-80
2023/10/09 10:21:49;;;;;;;10.30;4.78;;;;;;;;;;6311379;22;20011;-81
2023/10/09 10:24:30;;;;;;;8.23;5.10;;;;;;;;;;6284417;22;20450;-81
2023/10/09 10:27:23;;;;;;;9.35;5.00;;;;;;;;;;6282706;22;20336;-81
2023/10/09 10:30:13;;;;;;;9.10;4.95;;;;;;;;;;6282842;22;20024;-80
2023/10/09 10:32:58;;;;;;;9.18;4.70;;;;;;;;;;6310580;22;21738;-81
2023/10/09 10:35:39;;;;;;;12.30;5.45;;;;;;;;;;6283308;22;20018;-80
2023/10/09 10:38:25;;;;;;;13.85;5.25;;;;;;;;;;6283657;22;20011;-80
2023/10/09 10:40:57;;;;;;;9.10;5.18;;;;;;;;;;6310407;22;20011;-80
2023/10/09 10:46:15;;;;;;;11.32;4.75;;;;;;;;;;6307564;22;20464;-79
2023/10/09 10:48:47;;;;;;;10.45;4.97;;;;;;;;;;6307698;22;20023;-79
2023/10/09 10:51:14;;;;;;;9.52;4.45;;;;;;;;;;6306507;22;20015;-79
2023/10/09 10:53:52;;;;;;;8.27;4.55;;;;;;;;;;6280088;22;20022;-79
2023/10/09 10:56:18;;;;;;;10.18;4.60;;;;;;;;;;6306304;22;20136;-79
2023/10/09 10:59:11;;;;;;;9.85;5.70;;;;;;;;;;6308923;22;20007;-79
2023/10/09 11:01:52;;;;;;;7.88;4.18;;;;;;;;;;6279522;22;20012;-79
2023/10/09 11:04:24;;;;;;;8.55;4.38;;;;;;;;;;6307399;22;20015;-79
2023/10/09 11:07:06;;;;;;;8.82;5.10;;;;;;;;;;6280275;22;20505;-80
2023/10/09 11:15:44;;;;;;;10.60;4.47;;;;;;;;;;6307745;22;20054;-80
2023/10/09 11:18:20;;;;;;;12.65;5.32;;;;;;;;;;6281875;22;20050;-82
2023/10/09 11:26:25;;;;;;;8.50;4.75;;;;;;;;;;6309272;22;20424;-80
2023/10/09 11:28:56;;;;;;;10.35;5.40;;;;;;;;;;6307865;22;20020;-81
2023/10/09 11:31:22;;;;;;;8.13;4.65;;;;;;;;;;6307835;22;20078;-81
2023/10/09 11:33:51;;;;;;;12.20;5.07;;;;;;;;;;6310271;22;20015;-80
2023/10/09 11:36:21;;;;;;;9.45;4.47;;;;;;;;;;6309066;22;20054;-83
2023/10/09 11:38:49;;;;;;;;;;;;;;;;;;6313924;22;20039;-82
2023/10/09 11:41:19;;;;;;;9.23;4.35;;;;;;;;;;6285856;22;19911;-82
2023/10/09 11:43:51;;;;;;;;;;;;;;;;;;6314630;22;20027;-82
2023/10/09 11:46:36;;;;;;;10.93;4.03;;;;;;;;;;6312151;22;19919;-81
2023/10/09 11:49:44;;;;;;;8.05;4.18;;;;;;;;;;6312312;22;20023;-82
2023/10/09 11:54:34;;;;;;;12.27;4.90;;;;;;;;;;6314073;22;20068;-81
2023/10/09 11:57:01;;;;;;;8.02;4.00;;;;;;;;;;6280631;22;20136;-87
2023/10/09 11:59:41;;;;;;;6.88;3.60;;;;;;;;;;6281904;22;20335;-82
2023/10/09 12:02:12;;;;;;;9.18;4.00;;;;;;;;;;6285162;22;20011;-81
2023/10/09 12:04:41;;;;;;;8.63;3.20;;;;;;;;;;6313493;22;20440;-81
2023/10/09 12:07:09;;;;;;;5.60;3.55;;;;;;;;;;6313061;22;20054;-81
2023/10/09 12:09:35;;;;;;;8.50;4.18;;;;;;;;;;6312601;22;20064;-82
2023/10/09 12:12:04;;;;;;;8.38;3.75;;;;;;;;;;6313189;22;20037;-82
2023/10/09 12:14:34;;;;;;;7.05;3.25;;;;;;;;;;6313207;22;20022;-81
2023/10/09 12:17:05;;;;;;;;;;;;;;;;;;6313308;22;20007;-82
2023/10/09 12:19:32;;;;;;;7.38;3.33;;;;;;;;;;6313546;22;19951;-83
2023/10/09 12:22:00;;;;;;;4.82;3.10;;;;;;;;;;6260070;22;20011;-81
2023/10/09 12:24:26;;;;;;;9.27;3.40;;;;;;;;;;6314124;22;20042;-81
2023/10/09 12:26:53;;;;;;;7.50;3.92;;;;;;;;;;6286463;22;20435;-83
2023/10/09 12:29:19;;;;;;;9.27;3.58;;;;;;;;;;6287299;22;20047;-81
2023/10/09 12:31:45;;;;;;;8.15;3.65;;;;;;;;;;6314485;22;20015;-81
2023/10/09 12:34:16;;;;;;;7.68;4.10;;;;;;;;;;6312977;22;20340;-83
2023/10/09 12:36:43;;;;;;;6.45;2.92;;;;;;;;;;6313289;22;20019;-82
2023/10/09 12:39:18;;;;;;;9.48;3.47;;;;;;;;;;6313537;22;20015;-82
2023/10/09 12:41:48;;;;;;;7.80;3.03;;;;;;;;;;6314710;22;20046;-82
2023/10/09 12:44:18;;;;;;;6.53;3.35;;;;;;;;;;6285567;22;20011;-81
2023/10/09 12:47:04;;;;;;;7.30;3.83;;;;;;;;;;6285312;22;20045;-82
2023/10/09 12:49:30;;;;;;;5.20;2.55;;;;;;;;;;6313523;22;20027;-82
2023/10/09 12:51:57;;;;;;;8.07;2.88;;;;;;;;;;6285948;22;20015;-81
2023/10/09 12:54:26;;;;;;;5.65;3.00;;;;;;;;;;6312514;22;20323;-81
2023/10/09 12:56:53;;;;;;;4.70;2.47;;;;;;;;;;6286686;22;20015;-82
2023/10/09 12:59:20;;;;;;;7.10;3.17;;;;;;;;;;6312791;22;20050;-83
2023/10/09 13:01:52;;;;;;;6.97;3.20;;;;;;;;;;6312808;22;20012;-81
2023/10/09 13:04:21;;;;;;;5.88;2.65;;;;;;;;;;6284852;22;20019;-82
2023/10/09 13:06:51;;;;;;;4.78;2.70;;;;;;;;;;6313416;22;20042;-81
2023/10/09 13:09:35;;;;;;;4.93;2.30;;;;;;;;;;6312355;22;20015;-81
2023/10/09 13:12:01;;;;;;;4.30;2.33;;;;;;;;;;6313122;22;20045;-84
2023/10/09 13:14:28;;;;;;;8.77;2.72;;;;;;;;;;6282207;22;20007;-87
2023/10/09 13:16:54;;;;;;;8.40;2.92;;;;;;;;;;6255860;22;20021;-88
2023/10/09 13:19:24;;;;;;;6.60;2.35;;;;;;;;;;6279460;22;20449;-86
2023/10/09 13:21:50;;;;;;;6.88;2.60;;;;;;;;;;6278970;22;20022;-83
2023/10/09 13:24:16;;;;;;;7.05;2.28;;;;;;;;;;6278213;22;20495;-84
2023/10/09 13:26:45;;;;;;;3.70;2.53;;;;;;;;;;6279360;22;20011;-87
2023/10/09 13:29:12;;;;;;;4.95;2.40;;;;;;;;;;6305488;22;20387;-84
2023/10/09 13:31:39;;;;;;;8.57;2.83;;;;;;;;;;6305674;22;20059;-85
2023/10/09 13:34:06;;;;;;;10.98;3.92;;;;;;;;;;6252293;22;20027;-85
2023/10/09 13:36:35;;;;;;;6.60;2.42;;;;;;;;;;6278798;22;20012;-86
2023/10/09 13:39:19;;;;;;;4.10;2.13;;;;;;;;;;6255013;22;20007;-88
2023/10/09 13:41:46;;;;;;;6.20;2.42;;;;;;;;;;6253810;22;20011;-85
2023/10/09 13:44:12;;;;;;;6.90;1.95;;;;;;;;;;6278474;22;20083;-84
2023/10/09 13:46:41;;;;;;;4.95;2.20;;;;;;;;;;6253510;22;20047;-84
2023/10/09 13:49:13;;;;;;;3.15;1.90;;;;;;;;;;6278372;22;20015;-84
2023/10/09 13:51:46;;;;;;;5.70;2.35;;;;;;;;;;6279027;22;20015;-85
2023/10/09 13:54:20;;;;;;;3.25;1.55;;;;;;;;;;6253716;22;20447;-84
2023/10/09 13:56:46;;;;;;;4.63;1.60;;;;;;;;;;6279876;22;20079;-84
2023/10/09 13:59:12;;;;;;;8.43;2.42;;;;;;;;;;6279118;22;20015;-84
2023/10/09 14:01:39;;;;;;;5.88;2.25;;;;;;;;;;6280881;22;20008;-86
2023/10/09 14:04:07;;;;;;;8.18;2.35;;;;;;;;;;6280659;22;20012;-82
2023/10/09 14:06:33;;;;;;;6.55;2.35;;;;;;;;;;6311664;22;20015;-83
2023/10/09 14:09:09;;;;;;;5.30;2.45;;;;;;;;;;6280817;22;20022;-83
2023/10/09 14:11:37;;;;;;;6.15;2.35;;;;;;;;;;6280075;22;20011;-83
2023/10/09 14:14:11;;;;;;;4.18;1.90;;;;;;;;;;6277721;22;20460;-86
2023/10/09 14:16:42;;;;;;;3.33;2.20;;;;;;;;;;6277488;22;20049;-83
2023/10/09 14:19:12;;;;;;;6.80;2.20;;;;;;;;;;6277642;22;20039;-84
2023/10/09 14:21:40;;;;;;;5.60;1.92;;;;;;;;;;6306853;22;20142;-82
2023/10/09 14:24:15;;;;;;;2.95;1.88;;;;;;;;;;6306297;22;20017;-84
2023/10/09 14:26:41;;;;;;;4.25;1.70;;;;;;;;;;6279477;22;20450;-83
2023/10/09 14:29:07;;;;;;;6.57;2.00;;;;;;;;;;6308196;22;20011;-83
2023/10/09 14:31:38;;;;;;;5.15;2.13;;;;;;;;;;6279494;22;20094;-85
2023/10/09 14:34:08;;;;;;;5.57;1.45;;;;;;;;;;6279080;22;20020;-83
2023/10/09 14:36:35;;;;;;;;;;;;;;;;;;6280803;22;20022;-85
2023/10/09 14:39:01;;;;;;;5.28;2.47;;;;;;;;;;6279090;22;20248;-81
2023/10/09 14:41:29;;;;;;;5.20;1.80;;;;;;;;;;6280328;22;20029;-83
2023/10/09 14:43:55;;;;;;;5.07;2.42;;;;;;;;;;6277796;22;20668;-86
2023/10/09 14:46:28;;;;;;;6.25;2.03;;;;;;;;;;6251942;22;20011;-84
2023/10/09 14:48:54;;;;;;;4.75;1.90;;;;;;;;;;6251659;22;20042;-84
2023/10/09 14:51:30;;;;;;;4.28;1.33;;;;;;;;;;6278165;22;20090;-84
2023/10/09 14:54:02;;;;;;;2.67;1.20;;;;;;;;;;6304983;22;20370;-85
2023/10/09 14:56:28;;;;;;;5.13;1.70;;;;;;;;;;6278002;22;20019;-84
2023/10/09 14:58:58;;;;;;;3.22;2.00;;;;;;;;;;6304068;22;20019;-84
2023/10/09 15:01:25;;;;;;;4.90;2.00;;;;;;;;;;6306289;22;20022;-87
2023/10/09 15:03:57;;;;;;;2.47;1.27;;;;;;;;;;6276952;22;20064;-84
2023/10/09 15:06:24;;;;;;;2.95;1.40;;;;;;;;;;6305118;22;20024;-85
2023/10/09 15:08:50;;;;;;;2.85;1.75;;;;;;;;;;6277648;22;20344;-84
2023/10/09 15:11:16;;;;;;;3.55;1.60;;;;;;;;;;6251774;22;20026;-84
2023/10/09 15:13:42;;;;;;;4.57;1.55;;;;;;;;;;6279245;22;20011;-84
2023/10/09 15:16:10;;;;;;;5.65;2.72;;;;;;;;;;6277984;22;20019;-83
2023/10/09 15:18:37;;;;;;;3.70;1.50;;;;;;;;;;6309081;22;20462;-82
2023/10/09 15:21:03;;;;;;;5.68;1.70;;;;;;;;;;6309172;22;20014;-82
2023/10/09 15:23:29;;;;;;;3.95;1.52;;;;;;;;;;6304469;22;20030;-82
2023/10/09 15:25:55;;;;;;;5.65;1.88;;;;;;;;;;6307702;22;20011;-81
2023/10/09 15:28:22;;;;;;;4.57;1.58;;;;;;;;;;6306271;22;20072;-83
2023/10/09 15:30:49;;;;;;;5.20;2.50;;;;;;;;;;6279633;22;20015;-83
2023/10/09 15:33:18;;;;;;;6.35;3.25;;;;;;;;;;6306002;22;20038;-82
2023/10/09 15:35:51;;;;;;;5.30;2.08;;;;;;;;;;6307219;22;20012;-82
2023/10/09 15:38:19;;;;;;;5.28;1.63;;;;;;;;;;6277453;22;20019;-81
2023/10/09 15:40:47;;;;;;;5.82;1.90;;;;;;;;;;6279176;22;20015;-83
2023/10/09 15:43:13;;;;;;;4.68;1.98;;;;;;;;;;6306641;22;20018;-83
2023/10/09 15:45:47;;;;;;;3.58;1.55;;;;;;;;;;6279371;22;20011;-82
2023/10/09 15:48:15;;;;;;;3.15;1.60;;;;;;;;;;6305937;22;20712;-82
2023/10/09 15:50:48;;;;;;;4.88;1.40;;;;;;;;;;6306063;22;20348;-82
2023/10/09 15:53:16;;;;;;;2.85;1.52;;;;;;;;;;6277438;22;20102;-83
2023/10/09 15:55:42;;;;;;;3.08;1.27;;;;;;;;;;6278402;22;20039;-81
2023/10/09 15:58:08;;;;;;;3.60;1.65;;;;;;;;;;6309493;22;20038;-80
2023/10/09 16:00:34;;;;;;;3.85;1.50;;;;;;;;;;6309620;22;20068;-81
2023/10/09 16:03:00;;;;;;;4.45;1.70;;;;;;;;;;6307487;22;20565;-80
2023/10/09 16:05:27;;;;;;;3.03;1.50;;;;;;;;;;6307508;22;20103;-80
2023/10/09 16:07:53;;;;;;;3.10;1.40;;;;;;;;;;6279053;22;20030;-79
2023/10/09 16:10:20;;;;;;;2.47;1.10;;;;;;;;;;6278131;22;20018;-78
2023/10/09 16:12:47;;;;;;;2.72;1.13;;;;;;;;;;6308203;22;20014;-79
2023/10/09 16:15:14;;;;;;;2.22;1.30;;;;;;;;;;6253154;22;20011;-79
2023/10/09 16:17:43;;;;;;;2.20;1.10;;;;;;;;;;6278700;22;20015;-79
2023/10/09 16:20:21;;;;;;;3.58;1.65;;;;;;;;;;6305968;22;20015;-80
2023/10/09 16:22:48;;;;;;;3.35;1.20;;;;;;;;;;6309607;22;20069;-79
2023/10/09 16:25:17;;;;;;;2.85;1.00;;;;;;;;;;6279742;22;20027;-79
2023/10/09 16:27:46;;;;;;;3.33;2.05;;;;;;;;;;6282370;22;20034;-78
2023/10/09 16:30:18;;;;;;;2.75;1.00;;;;;;;;;;6280737;22;20007;-80
2023/10/09 16:32:45;;;;;;;2.72;1.50;;;;;;;;;;6282499;22;20026;-81
2023/10/09 16:35:11;;;;;;;2.97;0.90;;;;;;;;;;6277079;22;20011;-81
2023/10/09 16:37:37;;;;;;;1.75;1.20;;;;;;;;;;6300545;22;20525;-80
2023/10/09 16:40:11;;;;;;;1.00;0.90;;;;;;;;;;6277733;22;20057;-80
2023/10/09 16:42:42;;;;;;;3.70;1.10;;;;;;;;;;6277235;22;20348;-80
2023/10/09 16:45:12;;;;;;;2.42;1.10;;;;;;;;;;6274289;22;20015;-80
2023/10/09 16:47:38;;;;;;;6.95;2.40;;;;;;;;;;6278903;22;20565;-80
2023/10/09 16:50:09;;;;;;;1.50;0.70;;;;;;;;;;6276824;22;20050;-80
2023/10/09 16:52:39;;;;;;;1.35;0.80;;;;;;;;;;6276264;22;20019;-80
2023/10/09 16:55:11;;;;;;;2.53;1.10;;;;;;;;;;6278090;22;20019;-80
2023/10/09 16:57:41;;;;;;;1.30;0.90;;;;;;;;;;6308084;22;20451;-80
2023/10/09 17:00:12;;;;;;;3.55;1.52;;;;;;;;;;6305841;22;20063;-81
2023/10/09 17:02:41;;;;;;;4.50;1.10;;;;;;;;;;6305289;22;20011;-80
2023/10/09 17:05:12;;;;;;;2.10;1.17;;;;;;;;;;6279722;22;20011;-81
2023/10/09 17:07:39;;;;;;;6.15;1.50;;;;;;;;;;6278995;22;20019;-80
2023/10/09 17:10:14;;;;;;;2.58;1.17;;;;;;;;;;6279727;22;20023;-81
2023/10/09 17:12:43;;;;;;;2.22;1.17;;;;;;;;;;6307934;22;20022;-80
2023/10/09 17:15:14;;;;;;;2.60;1.20;;;;;;;;;;6279857;22;20122;-80
2023/10/09 17:17:42;;;;;;;3.72;1.25;;;;;;;;;;6309238;22;20050;-81
2023/10/09 17:20:10;;;;;;;5.90;1.48;;;;;;;;;;6280228;22;20022;-80
2023/10/09 17:22:36;;;;;;;2.92;1.25;;;;;;;;;;6280353;22;20057;-81
2023/10/09 17:25:03;;;;;;;2.92;1.20;;;;;;;;;;6279529;22;20452;-81